Time,TemperatureF,DewpointF,PressureIn,WindDirection,WindDirectionDegrees,WindSpeedMPH,WindSpeedGustMPH,Humidity,HourlyPrecipIn,Conditions,Clouds,dailyrainin,SoftwareType,DateUTC
2013-11-12 00:01:00,26.2,17.8,30.45,North,0,4.5,9.6,70,0.00,,,0.00,WUHU21623XXSP,2013-11-12 06:01:00,
2013-11-12 00:06:00,26.1,18.1,30.46,NNW,337,7.8,10.5,71,0.00,,,0.00,WUHU21623XXSP,2013-11-12 06:06:00,
2013-11-12 00:11:00,25.9,17.9,30.45,North,0,3.8,10.5,71,0.00,,,0.00,WUHU21623XXSP,2013-11-12 06:11:00,
2013-11-12 00:16:00,25.5,17.8,30.45,NNW,337,3.1,7.8,72,0.00,,,0.00,WUHU21623XXSP,2013-11-12 06:16:00,
2013-11-12 00:21:00,25.3,17.6,30.45,North,0,3.1,10.3,72,0.00,,,0.00,WUHU21623XXSP,2013-11-12 06:21:00,
2013-11-12 00:26:00,25.2,17.5,30.46,North,0,4.0,10.3,72,0.00,,,0.00,WUHU21623XXSP,2013-11-12 06:26:00,
2013-11-12 00:31:00,25.0,17.3,30.46,NNE,22,1.1,6.0,72,0.00,,,0.00,WUHU21623XXSP,2013-11-12 06:31:00,
2013-11-12 00:36:00,24.6,17.3,30.46,North,0,2.7,5.8,73,0.00,,,0.00,WUHU21623XXSP,2013-11-12 06:36:00,
2013-11-12 00:41:00,24.4,17.1,30.46,North,0,1.3,4.7,73,0.00,,,0.00,WUHU21623XXSP,2013-11-12 06:41:00,
2013-11-12 00:46:00,24.1,17.1,30.46,NNW,337,2.5,4.7,74,0.00,,,0.00,WUHU21623XXSP,2013-11-12 06:46:00,
2013-11-12 00:51:00,24.1,17.4,30.47,North,0,1.6,5.4,75,0.00,,,0.00,WUHU21623XXSP,2013-11-12 06:51:00,
2013-11-12 00:56:00,24.1,17.4,30.47,North,0,0.9,5.8,75,0.00,,,0.00,WUHU21623XXSP,2013-11-12 06:56:00,
2013-11-12 01:01:00,23.9,17.5,30.47,North,0,2.5,5.8,76,0.00,,,0.00,WUHU21623XXSP,2013-11-12 07:01:00,
2013-11-12 01:06:00,23.7,17.3,30.47,WNW,292,2.7,5.8,76,0.00,,,0.00,WUHU21623XXSP,2013-11-12 07:06:00,
2013-11-12 01:11:00,23.5,17.1,30.47,NNE,22,1.3,5.4,76,0.00,,,0.00,WUHU21623XXSP,2013-11-12 07:11:00,
2013-11-12 01:16:00,23.4,17.0,30.48,North,0,2.9,5.4,76,0.00,,,0.00,WUHU21623XXSP,2013-11-12 07:16:00,
2013-11-12 01:21:00,23.2,17.2,30.47,NNW,337,0.7,3.8,77,0.00,,,0.00,WUHU21623XXSP,2013-11-12 07:21:00,
2013-11-12 01:26:00,22.8,16.8,30.47,NNW,337,0.9,3.8,77,0.00,,,0.00,WUHU21623XXSP,2013-11-12 07:26:00,
2013-11-12 01:31:00,22.8,17.1,30.48,NNW,337,0.0,3.6,78,0.00,,,0.00,WUHU21623XXSP,2013-11-12 07:31:00,
2013-11-12 01:36:00,22.8,17.1,30.48,NW,315,0.0,4.5,78,0.00,,,0.00,WUHU21623XXSP,2013-11-12 07:36:00,
2013-11-12 01:41:00,22.8,17.4,30.48,NNW,337,4.0,5.4,79,0.00,,,0.00,WUHU21623XXSP,2013-11-12 07:41:00,
2013-11-12 01:46:00,22.8,17.4,30.48,North,0,1.1,5.4,79,0.00,,,0.00,WUHU21623XXSP,2013-11-12 07:46:00,
2013-11-12 01:51:00,22.8,17.4,30.48,North,0,2.0,4.0,79,0.00,,,0.00,WUHU21623XXSP,2013-11-12 07:51:00,
2013-11-12 01:56:00,22.5,17.1,30.48,NNE,22,2.9,4.0,79,0.00,,,0.00,WUHU21623XXSP,2013-11-12 07:56:00,
2013-11-12 02:01:00,22.3,16.9,30.48,NNW,337,0.0,4.5,79,0.00,,,0.00,WUHU21623XXSP,2013-11-12 08:01:00,
2013-11-12 02:06:00,22.3,16.9,30.48,North,0,1.1,4.5,79,0.00,,,0.00,WUHU21623XXSP,2013-11-12 08:06:00,
2013-11-12 02:11:00,22.1,16.7,30.48,NNW,337,1.1,3.8,79,0.00,,,0.00,WUHU21623XXSP,2013-11-12 08:11:00,
2013-11-12 02:16:00,21.9,16.5,30.48,North,0,2.2,3.6,79,0.00,,,0.00,WUHU21623XXSP,2013-11-12 08:16:00,
2013-11-12 02:21:00,21.9,16.8,30.48,North,0,0.0,3.6,80,0.00,,,0.00,WUHU21623XXSP,2013-11-12 08:21:00,
2013-11-12 02:26:00,21.7,16.6,30.49,NNW,337,2.2,3.1,80,0.00,,,0.00,WUHU21623XXSP,2013-11-12 08:26:00,
2013-11-12 02:31:00,21.7,16.6,30.49,NNW,337,1.6,2.9,80,0.00,,,0.00,WUHU21623XXSP,2013-11-12 08:31:00,
2013-11-12 02:36:00,21.7,16.6,30.50,NW,315,1.6,3.4,80,0.00,,,0.00,WUHU21623XXSP,2013-11-12 08:36:00,
2013-11-12 02:41:00,21.6,16.5,30.49,NE,45,0.9,3.4,80,0.00,,,0.00,WUHU21623XXSP,2013-11-12 08:41:00,
2013-11-12 02:46:00,21.4,16.3,30.50,North,0,0.0,2.5,80,0.00,,,0.00,WUHU21623XXSP,2013-11-12 08:46:00,
2013-11-12 02:51:00,21.4,16.6,30.50,NNW,337,1.8,4.5,81,0.00,,,0.00,WUHU21623XXSP,2013-11-12 08:51:00,
2013-11-12 02:56:00,21.6,16.8,30.50,NNW,337,3.8,4.5,81,0.00,,,0.00,WUHU21623XXSP,2013-11-12 08:56:00,
2013-11-12 03:01:00,21.9,17.1,30.50,NW,315,4.5,5.8,81,0.00,,,0.00,WUHU21623XXSP,2013-11-12 09:01:00,
2013-11-12 03:06:00,21.9,17.1,30.50,North,0,1.3,5.8,81,0.00,,,0.00,WUHU21623XXSP,2013-11-12 09:06:00,
2013-11-12 03:11:00,22.1,17.3,30.50,NW,315,5.1,5.6,81,0.00,,,0.00,WUHU21623XXSP,2013-11-12 09:11:00,
2013-11-12 03:16:00,22.3,17.5,30.50,NNW,337,2.9,5.6,81,0.00,,,0.00,WUHU21623XXSP,2013-11-12 09:16:00,
2013-11-12 03:21:00,22.1,17.3,30.50,WSW,247,2.2,5.4,81,0.00,,,0.00,WUHU21623XXSP,2013-11-12 09:21:00,
2013-11-12 03:26:00,21.9,17.1,30.50,NW,315,2.9,4.9,81,0.00,,,0.00,WUHU21623XXSP,2013-11-12 09:26:00,
2013-11-12 03:31:00,21.9,17.1,30.50,WNW,292,2.9,5.1,81,0.00,,,0.00,WUHU21623XXSP,2013-11-12 09:31:00,
2013-11-12 03:36:00,21.9,17.1,30.51,WNW,292,4.3,5.1,81,0.00,,,0.00,WUHU21623XXSP,2013-11-12 09:36:00,
2013-11-12 03:41:00,21.9,17.1,30.51,West,270,1.6,5.4,81,0.00,,,0.00,WUHU21623XXSP,2013-11-12 09:41:00,
2013-11-12 03:46:00,21.9,17.1,30.51,NNW,337,5.6,5.6,81,0.00,,,0.00,WUHU21623XXSP,2013-11-12 09:46:00,
2013-11-12 03:51:00,21.7,16.9,30.51,NNW,337,1.6,5.8,81,0.00,,,0.00,WUHU21623XXSP,2013-11-12 09:51:00,
2013-11-12 03:56:00,21.7,16.6,30.53,NNW,337,0.7,5.8,80,0.00,,,0.00,WUHU21623XXSP,2013-11-12 09:56:00,
2013-11-12 04:01:00,21.7,16.6,30.53,NW,315,4.7,6.3,80,0.00,,,0.00,WUHU21623XXSP,2013-11-12 10:01:00,
2013-11-12 04:06:00,21.7,16.6,30.53,North,0,3.8,7.4,80,0.00,,,0.00,WUHU21623XXSP,2013-11-12 10:06:00,
2013-11-12 04:11:00,21.7,16.6,30.53,NNW,337,5.8,7.6,80,0.00,,,0.00,WUHU21623XXSP,2013-11-12 10:11:00,
2013-11-12 04:16:00,21.7,16.6,30.53,NNW,337,1.8,7.6,80,0.00,,,0.00,WUHU21623XXSP,2013-11-12 10:16:00,
2013-11-12 04:21:00,21.6,16.5,30.53,North,0,4.0,6.7,80,0.00,,,0.00,WUHU21623XXSP,2013-11-12 10:21:00,
2013-11-12 04:26:00,21.4,16.3,30.53,NW,315,3.6,6.7,80,0.00,,,0.00,WUHU21623XXSP,2013-11-12 10:26:00,
2013-11-12 04:31:00,21.4,16.3,30.54,NW,315,6.5,7.4,80,0.00,,,0.00,WUHU21623XXSP,2013-11-12 10:31:00,
2013-11-12 04:36:00,21.2,16.1,30.54,NW,315,1.3,7.4,80,0.00,,,0.00,WUHU21623XXSP,2013-11-12 10:36:00,
2013-11-12 04:41:00,21.2,16.1,30.54,NNW,337,1.6,6.9,80,0.00,,,0.00,WUHU21623XXSP,2013-11-12 10:41:00,
2013-11-12 04:46:00,21.0,15.9,30.54,NW,315,1.6,6.9,80,0.00,,,0.00,WUHU21623XXSP,2013-11-12 10:46:00,
2013-11-12 04:51:00,21.0,15.9,30.54,NNW,337,3.4,5.4,80,0.00,,,0.00,WUHU21623XXSP,2013-11-12 10:51:00,
2013-11-12 04:56:00,20.8,15.7,30.55,NNW,337,0.0,5.4,80,0.00,,,0.00,WUHU21623XXSP,2013-11-12 10:56:00,
2013-11-12 05:01:00,20.8,15.7,30.55,North,0,3.1,6.3,80,0.00,,,0.00,WUHU21623XXSP,2013-11-12 11:01:00,
2013-11-12 05:06:00,20.7,15.9,30.54,NNW,337,0.0,6.3,81,0.00,,,0.00,WUHU21623XXSP,2013-11-12 11:06:00,
2013-11-12 05:11:00,20.5,15.7,30.55,WNW,292,0.0,4.3,81,0.00,,,0.00,WUHU21623XXSP,2013-11-12 11:11:00,
2013-11-12 05:16:00,20.3,15.5,30.55,WNW,292,0.0,3.8,81,0.00,,,0.00,WUHU21623XXSP,2013-11-12 11:16:00,
2013-11-12 05:21:00,20.1,15.3,30.55,WNW,292,2.2,3.1,81,0.00,,,0.00,WUHU21623XXSP,2013-11-12 11:21:00,
2013-11-12 05:26:00,19.9,15.1,30.55,NNW,337,1.3,3.1,81,0.00,,,0.00,WUHU21623XXSP,2013-11-12 11:26:00,
2013-11-12 05:31:00,19.8,15.0,30.56,West,270,0.0,2.9,81,0.00,,,0.00,WUHU21623XXSP,2013-11-12 11:31:00,
2013-11-12 05:36:00,19.6,14.8,30.55,NNE,22,2.0,2.7,81,0.00,,,0.00,WUHU21623XXSP,2013-11-12 11:36:00,
2013-11-12 05:41:00,19.6,15.1,30.56,NW,315,2.9,3.1,82,0.00,,,0.00,WUHU21623XXSP,2013-11-12 11:41:00,
2013-11-12 05:46:00,19.6,15.1,30.56,WNW,292,0.0,3.1,82,0.00,,,0.00,WUHU21623XXSP,2013-11-12 11:46:00,
2013-11-12 05:51:00,19.6,15.1,30.56,NNW,337,2.0,2.9,82,0.00,,,0.00,WUHU21623XXSP,2013-11-12 11:51:00,
2013-11-12 05:56:00,19.6,15.4,30.56,NW,315,4.0,4.0,83,0.00,,,0.00,WUHU21623XXSP,2013-11-12 11:56:00,
2013-11-12 06:01:00,19.6,15.4,30.56,NW,315,2.9,4.0,83,0.00,,,0.00,WUHU21623XXSP,2013-11-12 12:01:00,
2013-11-12 06:06:00,19.6,15.4,30.56,NW,315,1.1,3.4,83,0.00,,,0.00,WUHU21623XXSP,2013-11-12 12:06:00,
2013-11-12 06:11:00,19.4,15.2,30.56,West,270,2.0,3.4,83,0.00,,,0.00,WUHU21623XXSP,2013-11-12 12:11:00,
2013-11-12 06:16:00,19.2,15.0,30.57,WSW,247,1.8,3.4,83,0.00,,,0.00,WUHU21623XXSP,2013-11-12 12:16:00,
2013-11-12 06:21:00,19.0,14.8,30.57,NW,315,3.8,3.8,83,0.00,,,0.00,WUHU21623XXSP,2013-11-12 12:21:00,
2013-11-12 06:26:00,18.9,14.7,30.57,NW,315,2.9,3.8,83,0.00,,,0.00,WUHU21623XXSP,2013-11-12 12:26:00,
2013-11-12 06:31:00,18.7,14.5,30.58,NW,315,4.3,6.3,83,0.00,,,0.00,WUHU21623XXSP,2013-11-12 12:31:00,
2013-11-12 06:36:00,18.7,14.5,30.58,West,270,3.1,6.3,83,0.00,,,0.00,WUHU21623XXSP,2013-11-12 12:36:00,
2013-11-12 06:41:00,18.7,14.8,30.59,WNW,292,3.6,6.7,85,0.00,,,0.00,WUHU21623XXSP,2013-11-12 12:41:00,
2013-11-12 06:46:00,18.7,14.8,30.59,NW,315,4.7,6.7,85,0.00,,,0.00,WUHU21623XXSP,2013-11-12 12:46:00,
2013-11-12 06:51:00,18.7,14.8,30.59,WSW,247,3.4,8.5,85,0.00,,,0.00,WUHU21623XXSP,2013-11-12 12:51:00,
2013-11-12 06:56:00,18.7,14.8,30.59,NNW,337,0.0,8.5,85,0.00,,,0.00,WUHU21623XXSP,2013-11-12 12:56:00,
2013-11-12 07:01:00,18.5,14.3,30.60,NW,315,0.0,8.3,83,0.00,,,0.00,WUHU21623XXSP,2013-11-12 13:01:00,
2013-11-12 07:06:00,18.3,14.1,30.59,WNW,292,3.6,4.9,83,0.00,,,0.00,WUHU21623XXSP,2013-11-12 13:06:00,
2013-11-12 07:11:00,18.3,14.4,30.59,WNW,292,2.0,5.4,85,0.00,,,0.00,WUHU21623XXSP,2013-11-12 13:11:00,
2013-11-12 07:16:00,18.5,14.3,30.60,WNW,292,0.0,5.4,83,0.00,,,0.00,WUHU21623XXSP,2013-11-12 13:16:00,
2013-11-12 07:21:00,18.5,14.3,30.59,WNW,292,3.1,4.3,83,0.00,,,0.00,WUHU21623XXSP,2013-11-12 13:21:00,
2013-11-12 07:26:00,18.7,14.8,30.59,NW,315,6.9,6.9,85,0.00,,,0.00,WUHU21623XXSP,2013-11-12 13:26:00,
2013-11-12 07:31:00,18.7,14.8,30.59,North,0,5.1,9.4,85,0.00,,,0.00,WUHU21623XXSP,2013-11-12 13:31:00,
2013-11-12 07:36:00,19.0,15.1,30.59,WNW,292,1.8,9.4,85,0.00,,,0.00,WUHU21623XXSP,2013-11-12 13:36:00,
2013-11-12 07:41:00,19.2,15.0,30.58,West,270,3.1,6.3,83,0.00,,,0.00,WUHU21623XXSP,2013-11-12 13:41:00,
2013-11-12 07:46:00,19.2,15.0,30.58,NW,315,3.1,5.8,83,0.00,,,0.00,WUHU21623XXSP,2013-11-12 13:46:00,
2013-11-12 07:51:00,19.6,15.4,30.58,NNW,337,3.4,7.8,83,0.00,,,0.00,WUHU21623XXSP,2013-11-12 13:51:00,
2013-11-12 07:56:00,19.6,15.4,30.58,WNW,292,3.4,7.8,83,0.00,,,0.00,WUHU21623XXSP,2013-11-12 13:56:00,
2013-11-12 08:01:00,19.9,15.7,30.58,WSW,247,3.1,7.6,83,0.00,,,0.00,WUHU21623XXSP,2013-11-12 14:01:00,
2013-11-12 08:06:00,20.1,15.9,30.58,NNW,337,2.5,7.6,83,0.00,,,0.00,WUHU21623XXSP,2013-11-12 14:06:00,
2013-11-12 08:11:00,20.5,16.3,30.58,West,270,0.0,6.7,83,0.00,,,0.00,WUHU21623XXSP,2013-11-12 14:11:00,
2013-11-12 08:16:00,20.8,16.3,30.58,NW,315,4.5,6.7,82,0.00,,,0.00,WUHU21623XXSP,2013-11-12 14:16:00,
2013-11-12 08:21:00,20.8,16.3,30.58,NW,315,3.1,6.7,82,0.00,,,0.00,WUHU21623XXSP,2013-11-12 14:21:00,
2013-11-12 08:26:00,21.4,16.6,30.58,NW,315,4.0,6.9,81,0.00,,,0.00,WUHU21623XXSP,2013-11-12 14:26:00,
2013-11-12 08:31:00,21.9,17.1,30.58,NNW,337,5.6,6.9,81,0.00,,,0.00,WUHU21623XXSP,2013-11-12 14:31:00,
2013-11-12 08:36:00,22.3,17.2,30.58,West,270,2.5,6.5,80,0.00,,,0.00,WUHU21623XXSP,2013-11-12 14:36:00,
2013-11-12 08:41:00,22.8,17.4,30.58,North,0,3.6,7.6,79,0.00,,,0.00,WUHU21623XXSP,2013-11-12 14:41:00,
2013-11-12 08:46:00,23.4,17.3,30.58,WNW,292,0.0,7.6,77,0.00,,,0.00,WUHU21623XXSP,2013-11-12 14:46:00,
2013-11-12 08:51:00,24.1,18.0,30.58,North,0,5.6,7.6,77,0.00,,,0.00,WUHU21623XXSP,2013-11-12 14:51:00,
2013-11-12 08:56:00,24.6,17.9,30.58,NNW,337,2.9,6.9,75,0.00,,,0.00,WUHU21623XXSP,2013-11-12 14:56:00,
2013-11-12 09:01:00,25.0,18.0,30.58,NW,315,2.0,8.1,74,0.00,,,0.00,WUHU21623XXSP,2013-11-12 15:01:00,
2013-11-12 09:06:00,25.5,18.5,30.58,WNW,292,7.4,8.1,74,0.00,,,0.00,WUHU21623XXSP,2013-11-12 15:06:00,
2013-11-12 09:11:00,25.7,18.3,30.58,NW,315,3.8,7.4,73,0.00,,,0.00,WUHU21623XXSP,2013-11-12 15:11:00,
2013-11-12 09:16:00,25.5,17.8,30.58,West,270,6.7,11.9,72,0.00,,,0.00,WUHU21623XXSP,2013-11-12 15:16:00,
2013-11-12 09:21:00,25.9,18.2,30.58,NW,315,5.4,11.9,72,0.00,,,0.00,WUHU21623XXSP,2013-11-12 15:21:00,
2013-11-12 09:26:00,25.9,17.9,30.59,WSW,247,3.1,10.7,71,0.00,,,0.00,WUHU21623XXSP,2013-11-12 15:26:00,
2013-11-12 09:31:00,26.2,18.2,30.59,WNW,292,7.4,10.7,71,0.00,,,0.00,WUHU21623XXSP,2013-11-12 15:31:00,
2013-11-12 09:36:00,26.1,17.7,30.59,NNE,22,3.4,9.2,70,0.00,,,0.00,WUHU21623XXSP,2013-11-12 15:36:00,
2013-11-12 09:41:00,26.4,18.0,30.59,NNW,337,4.9,10.5,70,0.00,,,0.00,WUHU21623XXSP,2013-11-12 15:41:00,
2013-11-12 09:46:00,26.2,17.8,30.59,NW,315,0.9,10.5,70,0.00,,,0.00,WUHU21623XXSP,2013-11-12 15:46:00,
2013-11-12 09:51:00,26.8,18.1,30.59,NNW,337,3.6,9.4,69,0.00,,,0.00,WUHU21623XXSP,2013-11-12 15:51:00,
2013-11-12 09:56:00,26.6,17.5,30.59,NNW,337,6.0,9.4,68,0.00,,,0.00,WUHU21623XXSP,2013-11-12 15:56:00,
2013-11-12 10:01:00,27.0,18.2,30.59,NNW,337,2.0,9.4,69,0.00,,,0.00,WUHU21623XXSP,2013-11-12 16:01:00,
2013-11-12 10:06:00,27.1,17.6,30.59,NNW,337,3.6,8.9,67,0.00,,,0.00,WUHU21623XXSP,2013-11-12 16:06:00,
2013-11-12 10:11:00,27.1,18.3,30.59,WNW,292,2.2,9.2,69,0.00,,,0.00,WUHU21623XXSP,2013-11-12 16:11:00,
2013-11-12 10:16:00,27.7,18.6,30.58,West,270,5.1,9.2,68,0.00,,,0.00,WUHU21623XXSP,2013-11-12 16:16:00,
2013-11-12 10:21:00,28.0,18.5,30.58,WSW,247,4.9,7.6,67,0.00,,,0.00,WUHU21623XXSP,2013-11-12 16:21:00,
2013-11-12 10:26:00,28.0,17.8,30.58,WNW,292,5.6,7.6,65,0.00,,,0.00,WUHU21623XXSP,2013-11-12 16:26:00,
2013-11-12 10:31:00,28.2,18.3,30.58,NNW,337,2.7,7.4,66,0.00,,,0.00,WUHU21623XXSP,2013-11-12 16:31:00,
2013-11-12 10:36:00,28.2,17.6,30.59,WSW,247,3.1,10.3,64,0.00,,,0.00,WUHU21623XXSP,2013-11-12 16:36:00,
2013-11-12 10:41:00,28.2,17.6,30.59,West,270,4.0,10.3,64,0.00,,,0.00,WUHU21623XXSP,2013-11-12 16:41:00,
2013-11-12 10:46:00,28.6,18.3,30.58,WSW,247,3.4,9.6,65,0.00,,,0.00,WUHU21623XXSP,2013-11-12 16:46:00,
2013-11-12 10:51:00,28.9,17.9,30.58,WNW,292,9.2,9.2,63,0.00,,,0.00,WUHU21623XXSP,2013-11-12 16:51:00,
2013-11-12 10:56:00,28.6,17.6,30.58,West,270,4.5,11.0,63,0.00,,,0.00,WUHU21623XXSP,2013-11-12 16:56:00,
2013-11-12 11:01:00,28.8,18.2,30.58,South,180,3.8,11.0,64,0.00,,,0.00,WUHU21623XXSP,2013-11-12 17:01:00,
2013-11-12 11:06:00,28.6,17.2,30.58,West,270,5.1,10.1,62,0.00,,,0.00,WUHU21623XXSP,2013-11-12 17:06:00,
2013-11-12 11:11:00,28.6,16.8,30.57,West,270,4.0,9.4,61,0.00,,,0.00,WUHU21623XXSP,2013-11-12 17:11:00,
2013-11-12 11:16:00,28.8,17.8,30.57,WSW,247,3.6,10.7,63,0.00,,,0.00,WUHU21623XXSP,2013-11-12 17:16:00,
2013-11-12 11:21:00,28.8,17.0,30.58,West,270,0.9,10.7,61,0.00,,,0.00,WUHU21623XXSP,2013-11-12 17:21:00,
2013-11-12 11:26:00,28.9,16.7,30.57,West,270,6.0,9.4,60,0.00,,,0.00,WUHU21623XXSP,2013-11-12 17:26:00,
2013-11-12 11:31:00,28.8,17.0,30.57,WNW,292,7.6,10.1,61,0.00,,,0.00,WUHU21623XXSP,2013-11-12 17:31:00,
2013-11-12 11:36:00,28.9,16.7,30.57,WSW,247,5.8,10.1,60,0.00,,,0.00,WUHU21623XXSP,2013-11-12 17:36:00,
2013-11-12 11:41:00,29.1,16.5,30.56,WNW,292,4.3,8.9,59,0.00,,,0.00,WUHU21623XXSP,2013-11-12 17:41:00,
2013-11-12 11:46:00,28.9,16.3,30.56,West,270,5.1,9.8,59,0.00,,,0.00,WUHU21623XXSP,2013-11-12 17:46:00,
2013-11-12 11:51:00,29.1,16.5,30.56,WNW,292,4.5,11.2,59,0.00,,,0.00,WUHU21623XXSP,2013-11-12 17:51:00,
2013-11-12 11:56:00,29.3,16.2,30.56,NW,315,8.3,11.2,58,0.00,,,0.00,WUHU21623XXSP,2013-11-12 17:56:00,
2013-11-12 12:01:00,29.5,16.4,30.56,West,270,8.7,13.9,58,0.00,,,0.00,WUHU21623XXSP,2013-11-12 18:01:00,
2013-11-12 12:06:00,29.7,16.2,30.56,NW,315,4.5,13.9,57,0.00,,,0.00,WUHU21623XXSP,2013-11-12 18:06:00,
2013-11-12 12:11:00,29.5,16.0,30.56,NW,315,3.4,9.8,57,0.00,,,0.00,WUHU21623XXSP,2013-11-12 18:11:00,
2013-11-12 12:16:00,30.0,16.9,30.56,WNW,292,4.0,9.8,58,0.00,,,0.00,WUHU21623XXSP,2013-11-12 18:16:00,
2013-11-12 12:21:00,30.2,16.2,30.56,West,270,8.9,9.8,56,0.00,,,0.00,WUHU21623XXSP,2013-11-12 18:21:00,
2013-11-12 12:26:00,30.0,15.6,30.56,WNW,292,6.7,8.9,55,0.00,,,0.00,WUHU21623XXSP,2013-11-12 18:26:00,
2013-11-12 12:31:00,30.0,15.2,30.56,West,270,10.3,10.3,54,0.00,,,0.00,WUHU21623XXSP,2013-11-12 18:31:00,
2013-11-12 12:36:00,30.0,14.7,30.56,WNW,292,6.7,11.2,53,0.00,,,0.00,WUHU21623XXSP,2013-11-12 18:36:00,
2013-11-12 12:41:00,30.4,15.5,30.55,West,270,4.5,12.8,54,0.00,,,0.00,WUHU21623XXSP,2013-11-12 18:41:00,
2013-11-12 12:46:00,30.6,15.7,30.55,West,270,9.2,12.8,54,0.00,,,0.00,WUHU21623XXSP,2013-11-12 18:46:00,
2013-11-12 12:51:00,30.7,15.3,30.55,West,270,4.7,12.3,53,0.00,,,0.00,WUHU21623XXSP,2013-11-12 18:51:00,
2013-11-12 12:56:00,30.7,14.9,30.55,WNW,292,5.1,10.5,52,0.00,,,0.00,WUHU21623XXSP,2013-11-12 18:56:00,
2013-11-12 13:01:00,30.7,14.9,30.55,West,270,7.2,14.1,52,0.00,,,0.00,WUHU21623XXSP,2013-11-12 19:01:00,
2013-11-12 13:06:00,31.1,14.8,30.55,NW,315,3.1,14.1,51,0.00,,,0.00,WUHU21623XXSP,2013-11-12 19:06:00,
2013-11-12 13:11:00,30.9,14.6,30.55,NNW,337,3.8,10.5,51,0.00,,,0.00,WUHU21623XXSP,2013-11-12 19:11:00,
2013-11-12 13:16:00,31.1,14.8,30.55,West,270,10.1,10.1,51,0.00,,,0.00,WUHU21623XXSP,2013-11-12 19:16:00,
2013-11-12 13:21:00,31.1,14.8,30.55,West,270,8.1,11.6,51,0.00,,,0.00,WUHU21623XXSP,2013-11-12 19:21:00,
2013-11-12 13:26:00,31.3,14.5,30.55,West,270,6.5,11.6,49,0.00,,,0.00,WUHU21623XXSP,2013-11-12 19:26:00,
2013-11-12 13:31:00,31.3,14.5,30.55,WNW,292,3.6,13.4,49,0.00,,,0.00,WUHU21623XXSP,2013-11-12 19:31:00,
2013-11-12 13:36:00,31.6,13.2,30.54,West,270,10.7,13.4,46,0.00,,,0.00,WUHU21623XXSP,2013-11-12 19:36:00,
2013-11-12 13:41:00,31.3,13.0,30.54,NNW,337,9.2,11.9,46,0.00,,,0.00,WUHU21623XXSP,2013-11-12 19:41:00,
2013-11-12 13:46:00,31.3,13.0,30.54,NNW,337,2.0,11.0,46,0.00,,,0.00,WUHU21623XXSP,2013-11-12 19:46:00,
2013-11-12 13:51:00,30.9,13.1,30.54,WNW,292,7.8,12.5,47,0.00,,,0.00,WUHU21623XXSP,2013-11-12 19:51:00,
2013-11-12 13:56:00,31.5,13.1,30.53,WNW,292,2.9,12.5,46,0.00,,,0.00,WUHU21623XXSP,2013-11-12 19:56:00,
2013-11-12 14:01:00,31.6,12.7,30.53,WNW,292,6.3,9.8,45,0.00,,,0.00,WUHU21623XXSP,2013-11-12 20:01:00,
2013-11-12 14:06:00,31.8,13.4,30.53,West,270,3.4,9.8,46,0.00,,,0.00,WUHU21623XXSP,2013-11-12 20:06:00,
2013-11-12 14:11:00,31.8,13.9,30.53,North,0,2.2,7.4,47,0.00,,,0.00,WUHU21623XXSP,2013-11-12 20:11:00,
2013-11-12 14:16:00,31.8,13.4,30.53,NW,315,2.9,9.4,46,0.00,,,0.00,WUHU21623XXSP,2013-11-12 20:16:00,
2013-11-12 14:21:00,32.2,13.3,30.53,West,270,5.8,9.4,45,0.00,,,0.00,WUHU21623XXSP,2013-11-12 20:21:00,
2013-11-12 14:26:00,31.8,12.9,30.53,West,270,4.9,10.5,45,0.00,,,0.00,WUHU21623XXSP,2013-11-12 20:26:00,
2013-11-12 14:31:00,31.8,12.9,30.53,NW,315,2.7,11.4,45,0.00,,,0.00,WUHU21623XXSP,2013-11-12 20:31:00,
2013-11-12 14:36:00,31.6,12.7,30.52,NNW,337,3.8,11.4,45,0.00,,,0.00,WUHU21623XXSP,2013-11-12 20:36:00,
2013-11-12 14:41:00,31.6,12.2,30.52,West,270,4.0,8.3,44,0.00,,,0.00,WUHU21623XXSP,2013-11-12 20:41:00,
2013-11-12 14:46:00,31.6,12.2,30.53,West,270,3.8,11.0,44,0.00,,,0.00,WUHU21623XXSP,2013-11-12 20:46:00,
2013-11-12 14:51:00,31.3,12.4,30.52,NW,315,4.5,11.0,45,0.00,,,0.00,WUHU21623XXSP,2013-11-12 20:51:00,
2013-11-12 14:56:00,31.3,12.4,30.52,West,270,2.5,12.3,45,0.00,,,0.00,WUHU21623XXSP,2013-11-12 20:56:00,
2013-11-12 15:01:00,31.1,12.3,30.53,WNW,292,6.9,12.3,45,0.00,,,0.00,WUHU21623XXSP,2013-11-12 21:01:00,
2013-11-12 15:06:00,31.1,13.3,30.52,South,180,0.0,11.4,47,0.00,,,0.00,WUHU21623XXSP,2013-11-12 21:06:00,
2013-11-12 15:11:00,31.1,13.8,30.51,WNW,292,5.8,8.7,48,0.00,,,0.00,WUHU21623XXSP,2013-11-12 21:11:00,
2013-11-12 15:16:00,30.4,12.1,30.51,West,270,4.5,10.5,46,0.00,,,0.00,WUHU21623XXSP,2013-11-12 21:16:00,
2013-11-12 15:21:00,29.8,12.1,30.52,WNW,292,1.6,10.5,47,0.00,,,0.00,WUHU21623XXSP,2013-11-12 21:21:00,
2013-11-12 15:26:00,29.5,11.8,30.52,WSW,247,2.2,10.5,47,0.00,,,0.00,WUHU21623XXSP,2013-11-12 21:26:00,
2013-11-12 15:31:00,29.1,11.9,30.52,West,270,5.4,7.2,48,0.00,,,0.00,WUHU21623XXSP,2013-11-12 21:31:00,
2013-11-12 15:36:00,28.9,12.3,30.51,NW,315,3.8,9.4,49,0.00,,,0.00,WUHU21623XXSP,2013-11-12 21:36:00,
2013-11-12 15:41:00,28.9,12.7,30.51,NW,315,3.1,9.4,51,0.00,,,0.00,WUHU21623XXSP,2013-11-12 21:41:00,
2013-11-12 15:46:00,28.6,12.5,30.52,NW,315,4.3,6.9,51,0.00,,,0.00,WUHU21623XXSP,2013-11-12 21:46:00,
2013-11-12 15:51:00,28.6,12.5,30.51,WNW,292,5.1,10.1,51,0.00,,,0.00,WUHU21623XXSP,2013-11-12 21:51:00,
2013-11-12 15:56:00,28.4,12.7,30.52,West,270,1.1,10.1,52,0.00,,,0.00,WUHU21623XXSP,2013-11-12 21:56:00,
2013-11-12 16:01:00,28.2,12.6,30.52,WNW,292,5.4,6.9,52,0.00,,,0.00,WUHU21623XXSP,2013-11-12 22:01:00,
2013-11-12 16:06:00,28.2,13.0,30.52,West,270,5.1,8.3,53,0.00,,,0.00,WUHU21623XXSP,2013-11-12 22:06:00,
2013-11-12 16:11:00,28.0,13.3,30.52,NE,45,3.4,8.3,54,0.00,,,0.00,WUHU21623XXSP,2013-11-12 22:11:00,
2013-11-12 16:16:00,28.0,13.3,30.52,West,270,5.1,7.4,54,0.00,,,0.00,WUHU21623XXSP,2013-11-12 22:16:00,
2013-11-12 16:21:00,27.7,13.4,30.52,WNW,292,4.3,8.9,55,0.00,,,0.00,WUHU21623XXSP,2013-11-12 22:21:00,
2013-11-12 16:26:00,27.5,13.7,30.52,NW,315,1.1,8.9,56,0.00,,,0.00,WUHU21623XXSP,2013-11-12 22:26:00,
2013-11-12 16:31:00,27.3,13.5,30.52,WSW,247,5.8,7.4,56,0.00,,,0.00,WUHU21623XXSP,2013-11-12 22:31:00,
2013-11-12 16:36:00,27.1,13.3,30.52,WNW,292,2.0,7.4,56,0.00,,,0.00,WUHU21623XXSP,2013-11-12 22:36:00,
2013-11-12 16:41:00,27.1,13.3,30.52,West,270,5.8,7.2,56,0.00,,,0.00,WUHU21623XXSP,2013-11-12 22:41:00,
2013-11-12 16:46:00,26.8,13.0,30.52,West,270,3.8,8.5,56,0.00,,,0.00,WUHU21623XXSP,2013-11-12 22:46:00,
2013-11-12 16:51:00,26.6,13.3,30.52,West,270,4.7,10.3,57,0.00,,,0.00,WUHU21623XXSP,2013-11-12 22:51:00,
2013-11-12 16:56:00,26.4,13.1,30.52,WNW,292,6.5,10.3,57,0.00,,,0.00,WUHU21623XXSP,2013-11-12 22:56:00,
2013-11-12 17:01:00,26.2,12.9,30.53,West,270,1.1,8.7,57,0.00,,,0.00,WUHU21623XXSP,2013-11-12 23:01:00,
2013-11-12 17:06:00,26.2,13.3,30.52,West,270,2.2,7.6,58,0.00,,,0.00,WUHU21623XXSP,2013-11-12 23:06:00,
2013-11-12 17:11:00,25.9,13.4,30.52,NW,315,3.1,7.6,59,0.00,,,0.00,WUHU21623XXSP,2013-11-12 23:11:00,
2013-11-12 17:16:00,25.7,13.3,30.52,West,270,2.0,5.6,59,0.00,,,0.00,WUHU21623XXSP,2013-11-12 23:16:00,
2013-11-12 17:21:00,25.5,13.5,30.52,WNW,292,3.4,4.5,60,0.00,,,0.00,WUHU21623XXSP,2013-11-12 23:21:00,
2013-11-12 17:26:00,25.3,13.7,30.51,NW,315,2.2,4.5,61,0.00,,,0.00,WUHU21623XXSP,2013-11-12 23:26:00,
2013-11-12 17:31:00,25.3,14.1,30.51,WNW,292,1.3,5.8,62,0.00,,,0.00,WUHU21623XXSP,2013-11-12 23:31:00,
2013-11-12 17:36:00,25.3,14.1,30.51,WNW,292,1.1,5.8,62,0.00,,,0.00,WUHU21623XXSP,2013-11-12 23:36:00,
2013-11-12 17:41:00,25.3,14.1,30.51,West,270,0.0,4.9,62,0.00,,,0.00,WUHU21623XXSP,2013-11-12 23:41:00,
2013-11-12 17:46:00,25.2,14.0,30.51,West,270,0.0,4.0,62,0.00,,,0.00,WUHU21623XXSP,2013-11-12 23:46:00,
2013-11-12 17:51:00,25.2,14.0,30.51,West,270,1.6,5.1,62,0.00,,,0.00,WUHU21623XXSP,2013-11-12 23:51:00,
2013-11-12 17:56:00,25.0,13.8,30.51,West,270,3.6,6.0,62,0.00,,,0.00,WUHU21623XXSP,2013-11-12 23:56:00,
2013-11-12 18:01:00,25.0,14.2,30.51,WSW,247,2.0,6.0,63,0.00,,,0.00,WUHU21623XXSP,2013-11-13 00:01:00,
2013-11-12 18:06:00,25.0,14.2,30.51,NNW,337,0.0,6.3,63,0.00,,,0.00,WUHU21623XXSP,2013-11-13 00:06:00,
2013-11-12 18:11:00,24.6,13.8,30.51,SW,225,0.0,6.3,63,0.00,,,0.00,WUHU21623XXSP,2013-11-13 00:11:00,
2013-11-12 18:16:00,24.6,13.8,30.50,WSW,247,1.6,3.1,63,0.00,,,0.00,WUHU21623XXSP,2013-11-13 00:16:00,
2013-11-12 18:21:00,24.4,14.0,30.50,SSW,202,0.0,3.1,64,0.00,,,0.00,WUHU21623XXSP,2013-11-13 00:21:00,
2013-11-12 18:26:00,24.4,14.0,30.50,WNW,292,0.0,2.9,64,0.00,,,0.00,WUHU21623XXSP,2013-11-13 00:26:00,
2013-11-12 18:31:00,24.1,14.0,30.50,West,270,0.0,4.0,65,0.00,,,0.00,WUHU21623XXSP,2013-11-13 00:31:00,
2013-11-12 18:36:00,24.1,14.0,30.50,NNW,337,0.0,4.5,65,0.00,,,0.00,WUHU21623XXSP,2013-11-13 00:36:00,
2013-11-12 18:41:00,23.9,14.2,30.50,SSW,202,0.0,4.5,66,0.00,,,0.00,WUHU21623XXSP,2013-11-13 00:41:00,
2013-11-12 18:46:00,23.7,14.4,30.50,WSW,247,1.1,3.1,67,0.00,,,0.00,WUHU21623XXSP,2013-11-13 00:46:00,
2013-11-12 18:51:00,23.7,14.4,30.50,WNW,292,0.0,3.1,67,0.00,,,0.00,WUHU21623XXSP,2013-11-13 00:51:00,
2013-11-12 18:56:00,23.7,14.4,30.50,SW,225,2.9,4.9,67,0.00,,,0.00,WUHU21623XXSP,2013-11-13 00:56:00,
2013-11-12 19:01:00,23.5,14.2,30.50,SSW,202,1.1,4.9,67,0.00,,,0.00,WUHU21623XXSP,2013-11-13 01:01:00,
2013-11-12 19:06:00,23.5,14.2,30.50,WSW,247,2.0,3.6,67,0.00,,,0.00,WUHU21623XXSP,2013-11-13 01:06:00,
2013-11-12 19:11:00,23.5,14.5,30.50,WNW,292,0.0,3.6,68,0.00,,,0.00,WUHU21623XXSP,2013-11-13 01:11:00,
2013-11-12 19:16:00,23.5,14.5,30.49,West,270,2.5,3.4,68,0.00,,,0.00,WUHU21623XXSP,2013-11-13 01:16:00,
2013-11-12 19:21:00,23.5,14.9,30.50,West,270,3.1,4.0,69,0.00,,,0.00,WUHU21623XXSP,2013-11-13 01:21:00,
2013-11-12 19:26:00,23.5,14.9,30.50,West,270,0.0,4.5,69,0.00,,,0.00,WUHU21623XXSP,2013-11-13 01:26:00,
2013-11-12 19:31:00,23.5,14.9,30.50,West,270,2.2,4.5,69,0.00,,,0.00,WUHU21623XXSP,2013-11-13 01:31:00,
2013-11-12 19:36:00,23.5,14.9,30.50,West,270,0.0,4.5,69,0.00,,,0.00,WUHU21623XXSP,2013-11-13 01:36:00,
2013-11-12 19:41:00,23.5,14.9,30.50,West,270,0.7,2.2,69,0.00,,,0.00,WUHU21623XXSP,2013-11-13 01:41:00,
2013-11-12 19:46:00,23.4,14.8,30.50,West,270,1.3,2.0,69,0.00,,,0.00,WUHU21623XXSP,2013-11-13 01:46:00,
2013-11-12 19:51:00,23.4,14.8,30.50,WNW,292,0.0,2.5,69,0.00,,,0.00,WUHU21623XXSP,2013-11-13 01:51:00,
2013-11-12 19:56:00,23.4,14.8,30.50,WSW,247,2.0,3.6,69,0.00,,,0.00,WUHU21623XXSP,2013-11-13 01:56:00,
2013-11-12 20:01:00,23.4,14.8,30.50,NW,315,3.6,3.6,69,0.00,,,0.00,WUHU21623XXSP,2013-11-13 02:01:00,
2013-11-12 20:06:00,23.4,14.8,30.50,West,270,0.0,3.6,69,0.00,,,0.00,WUHU21623XXSP,2013-11-13 02:06:00,
2013-11-12 20:11:00,23.5,15.2,30.50,WNW,292,1.6,3.6,70,0.00,,,0.00,WUHU21623XXSP,2013-11-13 02:11:00,
2013-11-12 20:16:00,23.5,15.2,30.50,WNW,292,3.1,6.0,70,0.00,,,0.00,WUHU21623XXSP,2013-11-13 02:16:00,
2013-11-12 20:21:00,23.5,15.2,30.50,NNW,337,0.0,6.0,70,0.00,,,0.00,WUHU21623XXSP,2013-11-13 02:21:00,
2013-11-12 20:26:00,23.5,15.2,30.50,WSW,247,2.5,5.1,70,0.00,,,0.00,WUHU21623XXSP,2013-11-13 02:26:00,
2013-11-12 20:31:00,23.5,15.2,30.50,WNW,292,0.0,4.5,70,0.00,,,0.00,WUHU21623XXSP,2013-11-13 02:31:00,
2013-11-12 20:36:00,23.2,14.9,30.50,SW,225,0.0,4.5,70,0.00,,,0.00,WUHU21623XXSP,2013-11-13 02:36:00,
2013-11-12 20:41:00,23.0,14.7,30.50,WSW,247,3.8,3.8,70,0.00,,,0.00,WUHU21623XXSP,2013-11-13 02:41:00,
2013-11-12 20:46:00,22.8,14.9,30.49,SSW,202,0.0,3.8,71,0.00,,,0.00,WUHU21623XXSP,2013-11-13 02:46:00,
2013-11-12 20:51:00,22.8,14.9,30.49,SSW,202,0.0,3.8,71,0.00,,,0.00,WUHU21623XXSP,2013-11-13 02:51:00,
2013-11-12 20:56:00,22.6,14.7,30.49,WSW,247,3.4,4.7,71,0.00,,,0.00,WUHU21623XXSP,2013-11-13 02:56:00,
2013-11-12 21:01:00,22.6,14.7,30.49,SSE,157,0.0,4.7,71,0.00,,,0.00,WUHU21623XXSP,2013-11-13 03:01:00,
2013-11-12 21:06:00,22.6,15.0,30.48,WSW,247,0.0,3.1,72,0.00,,,0.00,WUHU21623XXSP,2013-11-13 03:06:00,
2013-11-12 21:11:00,22.3,14.7,30.48,WSW,247,0.0,3.1,72,0.00,,,0.00,WUHU21623XXSP,2013-11-13 03:11:00,
2013-11-12 21:16:00,22.3,14.7,30.48,West,270,1.6,3.4,72,0.00,,,0.00,WUHU21623XXSP,2013-11-13 03:16:00,
2013-11-12 21:21:00,22.5,14.9,30.49,WSW,247,0.0,4.5,72,0.00,,,0.00,WUHU21623XXSP,2013-11-13 03:21:00,
2013-11-12 21:26:00,22.6,15.0,30.48,SW,225,0.0,4.5,72,0.00,,,0.00,WUHU21623XXSP,2013-11-13 03:26:00,
2013-11-12 21:31:00,22.5,14.9,30.48,West,270,0.0,3.1,72,0.00,,,0.00,WUHU21623XXSP,2013-11-13 03:31:00,
2013-11-12 21:36:00,22.5,14.9,30.48,SSW,202,2.9,8.3,72,0.00,,,0.00,WUHU21623XXSP,2013-11-13 03:36:00,
2013-11-12 21:41:00,22.6,15.3,30.48,West,270,2.2,8.3,73,0.00,,,0.00,WUHU21623XXSP,2013-11-13 03:41:00,
2013-11-12 21:46:00,22.6,15.3,30.49,West,270,0.0,6.0,73,0.00,,,0.00,WUHU21623XXSP,2013-11-13 03:46:00,
2013-11-12 21:51:00,22.6,15.3,30.48,SSW,202,0.0,5.6,73,0.00,,,0.00,WUHU21623XXSP,2013-11-13 03:51:00,
2013-11-12 21:56:00,22.5,14.9,30.48,SSW,202,2.2,4.5,72,0.00,,,0.00,WUHU21623XXSP,2013-11-13 03:56:00,
2013-11-12 22:01:00,22.1,14.5,30.48,SW,225,4.7,4.7,72,0.00,,,0.00,WUHU21623XXSP,2013-11-13 04:01:00,
2013-11-12 22:06:00,21.9,14.7,30.48,SSW,202,2.0,4.7,73,0.00,,,0.00,WUHU21623XXSP,2013-11-13 04:06:00,
2013-11-12 22:11:00,21.9,14.7,30.48,SSW,202,2.0,4.3,73,0.00,,,0.00,WUHU21623XXSP,2013-11-13 04:11:00,
2013-11-12 22:16:00,21.6,14.7,30.48,SSW,202,2.2,4.3,74,0.00,,,0.00,WUHU21623XXSP,2013-11-13 04:16:00,
2013-11-12 22:21:00,21.4,14.5,30.47,SW,225,1.3,3.8,74,0.00,,,0.00,WUHU21623XXSP,2013-11-13 04:21:00,
2013-11-12 22:26:00,21.2,14.6,30.48,SSW,202,1.3,3.8,75,0.00,,,0.00,WUHU21623XXSP,2013-11-13 04:26:00,
2013-11-12 22:31:00,21.4,14.8,30.47,SW,225,4.9,4.9,75,0.00,,,0.00,WUHU21623XXSP,2013-11-13 04:31:00,
2013-11-12 22:36:00,21.4,14.8,30.47,SW,225,1.6,4.9,75,0.00,,,0.00,WUHU21623XXSP,2013-11-13 04:36:00,
2013-11-12 22:41:00,21.4,14.8,30.47,West,270,0.0,7.4,75,0.00,,,0.00,WUHU21623XXSP,2013-11-13 04:41:00,
2013-11-12 22:46:00,21.4,14.8,30.47,WSW,247,4.7,7.4,75,0.00,,,0.00,WUHU21623XXSP,2013-11-13 04:46:00,
2013-11-12 22:51:00,21.4,15.1,30.47,SW,225,0.0,6.9,76,0.00,,,0.00,WUHU21623XXSP,2013-11-13 04:51:00,
2013-11-12 22:56:00,21.4,15.1,30.46,WNW,292,6.0,6.0,76,0.00,,,0.00,WUHU21623XXSP,2013-11-13 04:56:00,
2013-11-12 23:01:00,21.4,15.1,30.46,SW,225,0.0,6.3,76,0.00,,,0.00,WUHU21623XXSP,2013-11-13 05:01:00,
2013-11-12 23:02:00,21.4,15.4,30.46,SSW,202,3.6,6.3,77,0.00,,,0.00,WUHU21623XXSP,2013-11-13 05:02:00,
2013-11-12 23:07:00,21.4,15.4,30.46,West,270,0.7,7.4,77,0.00,,,0.00,WUHU21623XXSP,2013-11-13 05:07:00,
2013-11-12 23:12:00,21.4,15.4,30.46,SW,225,2.2,7.4,77,0.00,,,0.00,WUHU21623XXSP,2013-11-13 05:12:00,
2013-11-12 23:17:00,21.0,15.0,30.46,SW,225,2.5,4.7,77,0.00,,,0.00,WUHU21623XXSP,2013-11-13 05:17:00,
2013-11-12 23:22:00,21.0,15.0,30.47,WSW,247,3.6,5.4,77,0.00,,,0.00,WUHU21623XXSP,2013-11-13 05:22:00,
2013-11-12 23:27:00,21.0,15.0,30.46,West,270,2.5,5.6,77,0.00,,,0.00,WUHU21623XXSP,2013-11-13 05:27:00,
2013-11-12 23:32:00,21.0,15.3,30.46,SW,225,2.0,5.8,78,0.00,,,0.00,WUHU21623XXSP,2013-11-13 05:32:00,
2013-11-12 23:37:00,20.8,15.1,30.46,SW,225,2.5,5.8,78,0.00,,,0.00,WUHU21623XXSP,2013-11-13 05:37:00,
2013-11-12 23:42:00,20.8,15.1,30.46,West,270,0.0,5.6,78,0.00,,,0.00,WUHU21623XXSP,2013-11-13 05:42:00,
2013-11-12 23:47:00,20.8,15.1,30.45,WSW,247,2.2,6.9,78,0.00,,,0.00,WUHU21623XXSP,2013-11-13 05:47:00,
2013-11-12 23:52:00,20.8,15.1,30.46,WSW,247,2.9,6.9,78,0.00,,,0.00,WUHU21623XXSP,2013-11-13 05:52:00,
2013-11-12 23:57:00,20.8,15.1,30.45,WSW,247,1.6,5.8,78,0.00,,,0.00,WUHU21623XXSP,2013-11-13 05:57:00,